Time;durP1;ratioP1;P1;durP2;ratioP2;P2;SDS_P1;SDS_P2;PMS_P1;PMS_P2;Temp;Humidity;BMP_temperature;BMP_pressure;BME280_temperature;BME280_humidity;BME280_pressure;Samples;Min_cycle;Max_cycle;Signal;HPM_P1;HPM_P2
2022/04/08 00:01:30;;;;;;;2.03;0.80;;;7.90;97.10;;;;;;5082762;28;20308;-65
2022/04/08 00:03:56;;;;;;;4.47;1.60;;;7.90;97.40;;;;;;5067189;28;20266;-66
2022/04/08 00:06:23;;;;;;;7.33;1.10;;;7.80;97.40;;;;;;5075698;28;20294;-64
2022/04/08 00:08:49;;;;;;;2.00;1.10;;;7.80;97.50;;;;;;5077562;28;20237;-66
2022/04/08 00:11:15;;;;;;;1.53;0.60;;;7.80;97.10;;;;;;5078443;28;20433;-66
2022/04/08 00:13:41;;;;;;;2.83;1.20;;;7.80;97.10;;;;;;5074106;28;21100;-67
2022/04/08 00:16:10;;;;;;;4.83;1.40;;;7.70;97.00;;;;;;5075922;28;20867;-66
2022/04/08 00:18:37;;;;;;;2.33;0.83;;;7.70;97.30;;;;;;5080724;28;20651;-65
2022/04/08 00:21:03;;;;;;;4.83;1.33;;;7.70;96.80;;;;;;5077057;28;20541;-65
2022/04/08 00:23:29;;;;;;;3.50;1.03;;;7.60;96.50;;;;;;5077994;28;20551;-66
2022/04/08 00:25:55;;;;;;;1.77;0.70;;;7.60;96.80;;;;;;5083546;28;20446;-66
2022/04/08 00:28:21;;;;;;;2.60;0.80;;;7.70;96.50;;;;;;5081045;28;20319;-66
2022/04/08 00:30:47;;;;;;;18.33;1.33;;;7.70;96.90;;;;;;5080994;28;20683;-66
2022/04/08 00:33:12;;;;;;;3.80;1.10;;;7.60;97.20;;;;;;5073994;28;20450;-65
2022/04/08 00:35:38;;;;;;;4.20;1.30;;;7.60;97.20;;;;;;5069831;28;20183;-66
2022/04/08 00:38:04;;;;;;;3.13;0.87;;;7.60;96.80;;;;;;5072107;28;20196;-65
2022/04/08 00:40:29;;;;;;;2.90;1.03;;;7.60;97.00;;;;;;5076757;28;20189;-67
2022/04/08 00:42:55;;;;;;;2.40;0.90;;;7.60;97.20;;;;;;5075387;28;20242;-66
2022/04/08 00:45:21;;;;;;;8.50;1.30;;;7.60;96.60;;;;;;5075586;28;20204;-67
2022/04/08 00:47:48;;;;;;;1.47;0.70;;;7.60;96.90;;;;;;5063607;28;20666;-65
2022/04/08 00:50:14;;;;;;;3.23;0.60;;;7.60;96.50;;;;;;5083931;28;20176;-64
2022/04/08 00:52:41;;;;;;;2.43;0.90;;;7.60;96.60;;;;;;5084865;28;20460;-66
2022/04/08 00:55:10;;;;;;;8.93;1.33;;;7.70;96.00;;;;;;5072080;28;20536;-65
2022/04/08 00:57:36;;;;;;;14.70;1.30;;;7.60;96.90;;;;;;5076003;28;20427;-66
2022/04/08 01:00:07;;;;;;;3.87;0.93;;;7.50;96.90;;;;;;5072968;28;20423;-66
2022/04/08 01:02:33;;;;;;;4.03;1.17;;;7.50;97.00;;;;;;5078111;28;20456;-66
2022/04/08 01:04:59;;;;;;;5.30;1.80;;;7.50;96.70;;;;;;5067324;28;20473;-67
2022/04/08 01:07:24;;;;;;;2.03;0.90;;;7.50;97.20;;;;;;5068559;28;20217;-66
2022/04/08 01:09:52;;;;;;;3.20;0.90;;;7.40;97.50;;;;;;5061777;28;20196;-66
2022/04/08 01:12:18;;;;;;;4.60;1.37;;;7.40;97.20;;;;;;5075652;28;20201;-67
2022/04/08 01:14:44;;;;;;;6.70;1.43;;;7.50;97.00;;;;;;5064032;28;20573;-66
2022/04/08 01:17:10;;;;;;;3.93;1.30;;;7.50;97.20;;;;;;5075364;28;20534;-65
2022/04/08 01:19:35;;;;;;;2.53;0.70;;;7.40;97.30;;;;;;5079644;28;20192;-66
2022/04/08 01:22:02;;;;;;;2.60;1.07;;;7.40;97.20;;;;;;5071582;28;20228;-66
2022/04/08 01:24:29;;;;;;;2.70;0.80;;;7.40;96.70;;;;;;5074553;28;20211;-66
2022/04/08 01:26:55;;;;;;;3.67;1.00;;;7.50;96.50;;;;;;5064859;28;20993;-68
2022/04/08 01:29:21;;;;;;;3.30;0.90;;;7.50;96.40;;;;;;5073212;28;20423;-67
2022/04/08 01:31:47;;;;;;;1.50;0.77;;;7.50;95.60;;;;;;5078247;28;20500;-67
2022/04/08 01:34:13;;;;;;;2.70;0.53;;;7.60;95.40;;;;;;5069618;28;20193;-67
2022/04/08 01:36:39;;;;;;;6.20;1.10;;;7.50;95.20;;;;;;5072421;28;20184;-67
2022/04/08 01:39:05;;;;;;;4.50;0.80;;;7.50;95.10;;;;;;5063711;28;20189;-67
2022/04/08 01:41:31;;;;;;;9.40;1.47;;;7.50;94.90;;;;;;5076460;28;20199;-66
2022/04/08 01:43:57;;;;;;;4.43;0.93;;;7.50;95.40;;;;;;5076355;28;20973;-66
2022/04/08 01:46:23;;;;;;;2.43;0.93;;;7.40;95.20;;;;;;5076052;28;20212;-66
2022/04/08 01:48:53;;;;;;;9.90;1.60;;;7.40;95.60;;;;;;5076308;28;20935;-66
2022/04/08 01:51:19;;;;;;;4.80;1.33;;;7.50;95.30;;;;;;5080125;28;20247;-67
2022/04/08 01:53:44;;;;;;;2.17;0.67;;;7.50;95.40;;;;;;5073382;28;20569;-67
2022/04/08 01:56:10;;;;;;;4.70;0.80;;;7.50;95.70;;;;;;5076707;28;20503;-66
2022/04/08 01:58:36;;;;;;;4.43;1.10;;;7.40;95.80;;;;;;5084967;28;20359;-66
2022/04/08 02:01:01;;;;;;;13.63;1.43;;;7.40;96.60;;;;;;5085015;28;20207;-65
2022/04/08 02:03:28;;;;;;;6.73;0.97;;;7.30;96.40;;;;;;5067970;28;20192;-66
2022/04/08 02:05:53;;;;;;;5.47;1.37;;;7.40;96.60;;;;;;5072027;28;20177;-66
2022/04/08 02:08:19;;;;;;;1.70;0.90;;;7.40;96.20;;;;;;5076131;28;21164;-67
2022/04/08 02:10:45;;;;;;;2.23;0.93;;;7.40;96.70;;;;;;5059551;28;20192;-66
2022/04/08 02:13:11;;;;;;;3.40;1.30;;;7.30;96.80;;;;;;5085111;28;20227;-66
2022/04/08 02:15:36;;;;;;;2.73;1.03;;;7.30;96.40;;;;;;5077052;28;20188;-66
2022/04/08 02:18:03;;;;;;;2.27;0.90;;;7.30;96.10;;;;;;5071757;28;20191;-67
2022/04/08 02:20:30;;;;;;;5.87;0.83;;;7.30;96.40;;;;;;5084506;28;20940;-66
2022/04/08 02:22:57;;;;;;;3.23;1.03;;;7.20;96.30;;;;;;5080005;28;20439;-68
2022/04/08 02:25:22;;;;;;;4.27;1.10;;;7.20;96.70;;;;;;5077913;28;20438;-67
2022/04/08 02:27:48;;;;;;;3.60;1.00;;;7.20;96.30;;;;;;5081630;28;20458;-66
2022/04/08 02:30:15;;;;;;;5.93;1.70;;;7.30;96.00;;;;;;5074757;28;20336;-68
2022/04/08 02:32:40;;;;;;;1.83;0.93;;;7.30;96.70;;;;;;5075421;28;20273;-65
2022/04/08 02:35:06;;;;;;;2.93;1.00;;;7.20;96.60;;;;;;5084431;28;20415;-66
2022/04/08 02:37:32;;;;;;;4.37;0.87;;;7.10;96.40;;;;;;5077282;28;20574;-65
2022/04/08 02:39:58;;;;;;;9.90;1.00;;;7.00;96.80;;;;;;5078870;28;20420;-65
2022/04/08 02:42:24;;;;;;;1.97;0.80;;;7.10;96.20;;;;;;5070389;28;20204;-66
2022/04/08 02:44:50;;;;;;;5.33;1.30;;;7.00;96.40;;;;;;5074956;28;20422;-66
2022/04/08 02:47:15;;;;;;;1.70;0.90;;;6.90;96.30;;;;;;5070368;28;20691;-66
2022/04/08 02:49:41;;;;;;;1.47;0.60;;;6.90;95.80;;;;;;5083797;28;20264;-65
2022/04/08 02:52:07;;;;;;;3.10;1.00;;;7.00;94.90;;;;;;5077052;28;20676;-65
2022/04/08 02:54:33;;;;;;;3.97;0.90;;;7.00;94.60;;;;;;5077648;28;20192;-66
2022/04/08 02:56:58;;;;;;;1.40;0.70;;;7.00;94.60;;;;;;5075199;28;20431;-67
2022/04/08 02:59:24;;;;;;;3.83;1.07;;;7.00;94.50;;;;;;5087856;28;20204;-66
2022/04/08 03:01:49;;;;;;;5.80;1.17;;;7.00;94.40;;;;;;5073303;28;20200;-66
2022/04/08 03:04:15;;;;;;;2.00;0.70;;;7.00;94.70;;;;;;5070892;28;20181;-66
2022/04/08 03:06:41;;;;;;;4.50;0.80;;;6.90;94.70;;;;;;5071535;28;20691;-67
2022/04/08 03:09:06;;;;;;;2.80;1.00;;;6.90;95.00;;;;;;5079243;28;20295;-66
2022/04/08 03:11:33;;;;;;;6.07;0.93;;;6.90;94.30;;;;;;5073059;28;20347;-66
2022/04/08 03:14:01;;;;;;;3.47;1.40;;;7.00;94.50;;;;;;5069170;28;20283;-66
2022/04/08 03:16:27;;;;;;;1.30;0.60;;;6.90;94.60;;;;;;5074222;28;20427;-67
2022/04/08 03:18:53;;;;;;;2.20;0.77;;;6.80;95.40;;;;;;5071880;28;20875;-66
2022/04/08 03:21:18;;;;;;;2.03;1.10;;;6.80;94.90;;;;;;5079841;28;20218;-65
2022/04/08 03:23:44;;;;;;;5.90;0.70;;;6.70;94.90;;;;;;5072140;28;20185;-65
2022/04/08 03:26:10;;;;;;;1.50;0.60;;;6.70;94.70;;;;;;5080204;28;20181;-66
2022/04/08 03:28:36;;;;;;;1.60;0.83;;;6.70;94.80;;;;;;5083802;28;20508;-66
2022/04/08 03:31:02;;;;;;;1.87;0.90;;;6.80;94.40;;;;;;5083646;28;20422;-66
2022/04/08 03:33:28;;;;;;;1.97;0.97;;;6.70;94.10;;;;;;5070430;28;20209;-65
2022/04/08 03:35:53;;;;;;;4.70;0.77;;;6.70;93.50;;;;;;5074840;28;20181;-66
2022/04/08 03:38:19;;;;;;;2.13;0.70;;;6.70;94.20;;;;;;5078733;28;20199;-66
2022/04/08 03:40:45;;;;;;;5.27;1.37;;;6.70;94.00;;;;;;5074148;28;20185;-66
2022/04/08 03:43:10;;;;;;;1.97;0.63;;;6.70;94.00;;;;;;5071569;28;20197;-66
2022/04/08 03:45:36;;;;;;;2.70;1.20;;;6.70;94.40;;;;;;5075055;28;20595;-65
2022/04/08 03:48:02;;;;;;;6.00;1.13;;;6.70;94.10;;;;;;5071725;28;20205;-68
2022/04/08 03:50:28;;;;;;;4.37;1.03;;;6.70;94.10;;;;;;5069007;28;20287;-66
2022/04/08 03:52:54;;;;;;;5.83;0.60;;;6.70;94.00;;;;;;5072774;28;20455;-65
2022/04/08 03:55:20;;;;;;;3.73;0.80;;;6.70;94.10;;;;;;5068278;28;20184;-65
2022/04/08 03:57:46;;;;;;;9.40;0.70;;;6.70;94.50;;;;;;5075943;28;20278;-68
2022/04/08 04:00:13;;;;;;;4.63;1.00;;;6.60;95.00;;;;;;5069290;28;20227;-66
2022/04/08 04:02:38;;;;;;;3.33;0.70;;;6.60;94.10;;;;;;5074890;28;20514;-65
2022/04/08 04:05:05;;;;;;;2.20;0.83;;;6.70;93.90;;;;;;5082993;28;21208;-67
2022/04/08 04:07:33;;;;;;;2.67;1.20;;;6.60;94.20;;;;;;5068979;28;20230;-67
2022/04/08 04:09:59;;;;;;;3.30;0.93;;;6.60;94.20;;;;;;5075205;28;20430;-66
2022/04/08 04:12:26;;;;;;;3.10;1.13;;;6.70;94.40;;;;;;5074605;28;20453;-67
2022/04/08 04:14:53;;;;;;;3.03;0.60;;;6.60;94.20;;;;;;5075343;28;20475;-67
2022/04/08 04:17:19;;;;;;;1.80;0.63;;;6.60;94.20;;;;;;5079613;28;21028;-66
2022/04/08 04:19:45;;;;;;;8.60;0.90;;;6.60;94.00;;;;;;5083192;28;20505;-66
2022/04/08 04:22:11;;;;;;;3.30;0.93;;;6.60;94.10;;;;;;5077443;28;20284;-66
2022/04/08 04:24:36;;;;;;;1.80;0.80;;;6.60;94.50;;;;;;5077777;28;20189;-67
2022/04/08 04:27:02;;;;;;;2.03;0.97;;;6.70;94.10;;;;;;5074830;28;21252;-66
2022/04/08 04:29:27;;;;;;;1.67;0.83;;;6.60;94.50;;;;;;5078095;28;20664;-66
2022/04/08 04:31:55;;;;;;;5.10;1.27;;;6.60;94.50;;;;;;5078895;28;20204;-67
2022/04/08 04:34:23;;;;;;;2.27;1.33;;;6.50;94.70;;;;;;5070691;28;20579;-68
2022/04/08 04:36:48;;;;;;;7.17;1.27;;;6.50;94.90;;;;;;5080198;28;20430;-67
2022/04/08 04:39:14;;;;;;;6.93;1.00;;;6.50;95.40;;;;;;5078144;28;20423;-67
2022/04/08 04:41:40;;;;;;;6.13;1.37;;;6.40;95.70;;;;;;5079164;28;20288;-67
2022/04/08 04:44:05;;;;;;;2.80;0.83;;;6.40;95.80;;;;;;5081598;28;20203;-69
2022/04/08 04:46:31;;;;;;;7.33;0.80;;;6.40;95.90;;;;;;5076427;28;20320;-66
2022/04/08 04:48:57;;;;;;;6.67;1.40;;;6.40;96.00;;;;;;5080322;28;20216;-64
2022/04/08 04:51:23;;;;;;;3.90;1.13;;;6.40;96.10;;;;;;5080878;28;20184;-68
2022/04/08 04:53:48;;;;;;;1.87;0.97;;;6.40;95.90;;;;;;5069308;28;20231;-68
2022/04/08 04:56:14;;;;;;;4.13;1.27;;;6.40;96.30;;;;;;5069689;28;20181;-67
2022/04/08 04:58:39;;;;;;;2.13;0.97;;;6.40;96.30;;;;;;5079043;28;20207;-66
2022/04/08 05:01:05;;;;;;;16.03;0.90;;;6.30;96.40;;;;;;5080143;28;20184;-65
2022/04/08 05:03:31;;;;;;;3.27;0.97;;;6.30;96.50;;;;;;5073876;28;20181;-67
2022/04/08 05:05:56;;;;;;;5.73;1.47;;;6.30;96.50;;;;;;5075705;28;20203;-66
2022/04/08 05:08:22;;;;;;;4.80;1.17;;;6.30;96.70;;;;;;5077670;28;20207;-64
2022/04/08 05:10:48;;;;;;;5.10;1.07;;;6.30;96.80;;;;;;5085795;28;20207;-67
2022/04/08 05:13:13;;;;;;;3.00;1.13;;;6.30;97.00;;;;;;5086903;28;20201;-67
2022/04/08 05:15:42;;;;;;;4.70;1.83;;;6.30;97.10;;;;;;5080023;28;20238;-67
2022/04/08 05:18:09;;;;;;;1.83;1.03;;;6.30;97.20;;;;;;5067775;28;20220;-66
2022/04/08 05:20:35;;;;;;;5.30;1.97;;;6.30;97.00;;;;;;5085581;28;20502;-66
2022/04/08 05:23:01;;;;;;;1.93;1.00;;;6.30;96.90;;;;;;5081902;28;20460;-66
2022/04/08 05:25:27;;;;;;;15.90;1.40;;;6.40;96.90;;;;;;5071366;28;20538;-66
2022/04/08 05:27:53;;;;;;;15.80;1.70;;;6.40;96.90;;;;;;5077500;28;20926;-65
2022/04/08 05:30:19;;;;;;;2.17;1.13;;;6.40;97.30;;;;;;5076876;28;20245;-65
2022/04/08 05:32:48;;;;;;;9.50;1.43;;;6.50;97.30;;;;;;5077467;28;20457;-66
2022/04/08 05:35:18;;;;;;;2.53;0.90;;;6.50;97.50;;;;;;5078590;28;20443;-67
2022/04/08 05:37:47;;;;;;;5.70;1.50;;;6.50;98.20;;;;;;5084870;28;20558;-66
2022/04/08 05:40:16;;;;;;;5.87;0.90;;;6.50;98.30;;;;;;5080426;28;20487;-66
2022/04/08 05:42:46;;;;;;;3.50;0.87;;;6.50;98.70;;;;;;5071870;28;20979;-65
2022/04/08 05:45:18;;;;;;;2.40;1.43;;;6.40;98.80;;;;;;5079438;28;20418;-65
2022/04/08 05:47:45;;;;;;;6.40;0.80;;;6.40;99.50;;;;;;5077211;28;20516;-68
2022/04/08 05:50:11;;;;;;;2.80;0.80;;;6.40;99.70;;;;;;5077946;28;20427;-67
2022/04/08 05:52:36;;;;;;;5.93;0.53;;;6.40;99.90;;;;;;5073762;28;20474;-67
2022/04/08 05:55:02;;;;;;;3.70;1.17;;;6.40;99.90;;;;;;5064220;28;20470;-67
2022/04/08 05:57:40;;;;;;;3.73;0.93;;;6.30;99.90;;;;;;5077444;28;20184;-67
2022/04/08 06:00:06;;;;;;;4.93;2.10;;;6.30;99.90;;;;;;5065731;28;20184;-67
2022/04/08 06:02:32;;;;;;;16.30;2.70;;;6.30;99.90;;;;;;5066983;28;20453;-66
2022/04/08 06:04:57;;;;;;;4.07;1.70;;;6.20;99.90;;;;;;5077269;28;20461;-66
2022/04/08 06:07:26;;;;;;;3.57;1.50;;;6.20;99.90;;;;;;5073676;28;20277;-67
2022/04/08 06:09:53;;;;;;;3.00;0.70;;;6.10;99.90;;;;;;5076846;28;20524;-67
2022/04/08 06:12:18;;;;;;;4.30;1.30;;;6.10;99.90;;;;;;5078434;28;20443;-66
2022/04/08 06:14:44;;;;;;;4.20;1.70;;;6.10;99.90;;;;;;5075573;28;20426;-67
2022/04/08 06:17:10;;;;;;;5.00;1.30;;;6.10;99.90;;;;;;5076742;28;20180;-66
2022/04/08 06:19:35;;;;;;;2.97;1.20;;;6.00;99.90;;;;;;5070606;28;20181;-66
2022/04/08 06:22:01;;;;;;;2.57;1.17;;;6.00;99.90;;;;;;5075939;28;20886;-67
2022/04/08 06:24:26;;;;;;;2.27;1.13;;;6.00;99.90;;;;;;5074767;28;20184;-66
2022/04/08 06:26:52;;;;;;;9.07;1.77;;;5.90;99.90;;;;;;5073977;28;20223;-67
2022/04/08 06:29:17;;;;;;;2.00;1.03;;;5.90;99.90;;;;;;5073807;28;20215;-66
2022/04/08 06:31:43;;;;;;;1.60;0.77;;;5.90;99.90;;;;;;5075827;28;20563;-65
2022/04/08 06:34:09;;;;;;;2.53;0.80;;;5.80;99.90;;;;;;5075681;28;20184;-66
2022/04/08 06:36:34;;;;;;;1.77;0.97;;;5.80;99.90;;;;;;5059973;28;20177;-65
2022/04/08 06:39:00;;;;;;;3.33;0.73;;;5.70;99.90;;;;;;5073414;28;20177;-65
2022/04/08 06:41:26;;;;;;;1.67;1.10;;;5.70;99.90;;;;;;5073263;28;20741;-65
2022/04/08 06:43:51;;;;;;;3.60;1.23;;;5.60;99.90;;;;;;5074716;28;20184;-66
2022/04/08 06:46:17;;;;;;;2.60;1.00;;;5.50;99.90;;;;;;5074499;28;20852;-66
2022/04/08 06:48:43;;;;;;;4.50;1.27;;;5.60;99.90;;;;;;5078493;28;20210;-65
2022/04/08 06:51:08;;;;;;;11.97;1.37;;;5.50;99.90;;;;;;5075181;28;20256;-66
2022/04/08 06:53:34;;;;;;;4.03;1.33;;;5.50;99.90;;;;;;5074814;28;20181;-65
2022/04/08 06:56:01;;;;;;;3.57;1.30;;;5.40;99.90;;;;;;5061780;28;20184;-65
2022/04/08 06:58:27;;;;;;;1.40;0.70;;;5.40;99.90;;;;;;5080384;28;20491;-65
2022/04/08 07:00:54;;;;;;;1.87;0.97;;;5.40;99.90;;;;;;5081148;28;20423;-66
2022/04/08 07:03:19;;;;;;;1.53;0.80;;;5.30;99.90;;;;;;5077759;28;20555;-65
2022/04/08 07:05:45;;;;;;;3.50;0.70;;;5.30;99.90;;;;;;5084713;28;20533;-66
2022/04/08 07:08:11;;;;;;;4.25;1.20;;;5.30;99.90;;;;;;5076423;28;20466;-65
2022/04/08 07:10:39;;;;;;;1.53;0.93;;;5.30;99.90;;;;;;5068464;28;20189;-67
2022/04/08 07:13:06;;;;;;;1.83;0.60;;;5.30;99.90;;;;;;5070951;28;20212;-65
2022/04/08 07:15:32;;;;;;;2.23;1.03;;;5.30;99.90;;;;;;5073446;28;20933;-66
2022/04/08 07:17:58;;;;;;;1.70;0.60;;;5.40;99.90;;;;;;5070184;28;20460;-66
2022/04/08 07:20:24;;;;;;;4.30;0.93;;;5.40;99.90;;;;;;5072701;28;20200;-65
2022/04/08 07:22:51;;;;;;;2.50;0.83;;;5.30;99.90;;;;;;5073975;28;20200;-65
2022/04/08 07:25:17;;;;;;;1.43;0.67;;;5.30;99.90;;;;;;5074543;28;20455;-65
2022/04/08 07:27:48;;;;;;;1.90;0.97;;;5.30;99.90;;;;;;5077324;28;21272;-65
2022/04/08 07:30:15;;;;;;;1.80;0.80;;;5.30;99.90;;;;;;5071407;28;20707;-66
2022/04/08 07:32:41;;;;;;;1.60;0.70;;;5.40;99.90;;;;;;5077957;28;20446;-66
2022/04/08 07:35:08;;;;;;;3.40;1.13;;;5.40;99.90;;;;;;5076751;28;20465;-66
2022/04/08 07:37:34;;;;;;;5.07;1.23;;;5.30;99.90;;;;;;5073596;28;20928;-66
2022/04/08 07:40:00;;;;;;;1.40;0.70;;;5.40;99.90;;;;;;5076907;28;20427;-67
2022/04/08 07:42:26;;;;;;;1.57;0.70;;;5.40;99.90;;;;;;5080776;28;20829;-67
2022/04/08 07:44:53;;;;;;;1.30;0.60;;;5.40;99.90;;;;;;5083403;28;20440;-66
2022/04/08 07:47:20;;;;;;;2.07;0.70;;;5.30;99.90;;;;;;5079246;28;20466;-65
2022/04/08 07:49:47;;;;;;;2.17;0.70;;;5.40;99.90;;;;;;5078655;28;20526;-67
2022/04/08 07:52:13;;;;;;;6.83;0.70;;;5.40;99.90;;;;;;5076459;28;20439;-67
2022/04/08 07:54:38;;;;;;;1.97;0.70;;;5.50;99.90;;;;;;5080208;28;20419;-65
2022/04/08 07:57:04;;;;;;;1.50;0.77;;;5.50;99.90;;;;;;5077513;28;20721;-67
2022/04/08 07:59:29;;;;;;;1.60;0.67;;;5.60;99.90;;;;;;5074886;28;20641;-66
2022/04/08 08:01:55;;;;;;;1.93;0.70;;;5.70;99.90;;;;;;5079523;28;20188;-66
2022/04/08 08:04:22;;;;;;;2.20;0.73;;;5.80;99.90;;;;;;5077925;28;20761;-67
2022/04/08 08:06:48;;;;;;;6.60;1.00;;;5.80;99.90;;;;;;5068629;28;20189;-67
2022/04/08 08:09:13;;;;;;;3.37;1.17;;;5.80;99.90;;;;;;5074100;28;20467;-67
2022/04/08 08:11:39;;;;;;;1.33;0.60;;;5.80;99.90;;;;;;5077944;28;20500;-66
2022/04/08 08:14:05;;;;;;;2.53;1.27;;;5.90;99.90;;;;;;5076525;28;20241;-65
2022/04/08 08:16:31;;;;;;;6.43;1.10;;;5.90;99.90;;;;;;5078311;28;20554;-66
2022/04/08 08:18:57;;;;;;;1.77;0.67;;;6.00;99.90;;;;;;5086496;28;20185;-67
2022/04/08 08:21:24;;;;;;;4.47;0.90;;;6.00;99.90;;;;;;5085055;28;21046;-68
2022/04/08 08:23:50;;;;;;;2.60;0.80;;;6.00;99.90;;;;;;5082160;28;20219;-66
2022/04/08 08:26:16;;;;;;;3.60;1.30;;;6.00;99.90;;;;;;5079363;28;20437;-67
2022/04/08 08:28:41;;;;;;;1.50;0.60;;;6.00;99.90;;;;;;5076848;28;20458;-67
2022/04/08 08:31:07;;;;;;;1.90;0.93;;;6.00;99.90;;;;;;5076578;28;20181;-65
2022/04/08 08:33:33;;;;;;;1.67;0.70;;;6.00;99.90;;;;;;5078442;28;20184;-67
2022/04/08 08:35:59;;;;;;;2.50;1.10;;;6.10;99.90;;;;;;5076269;28;20206;-66
2022/04/08 08:38:24;;;;;;;5.23;1.20;;;6.20;99.90;;;;;;5076131;28;20426;-65
2022/04/08 08:40:50;;;;;;;2.20;0.80;;;6.30;99.90;;;;;;5082331;28;20220;-65
2022/04/08 08:43:20;;;;;;;1.50;0.90;;;6.30;99.90;;;;;;5082663;28;20307;-65
2022/04/08 08:45:48;;;;;;;5.77;1.30;;;6.20;99.90;;;;;;5074704;28;20188;-66
2022/04/08 08:48:17;;;;;;;2.13;1.07;;;6.30;99.90;;;;;;5071276;28;20511;-66
2022/04/08 08:50:47;;;;;;;5.30;1.60;;;6.30;99.90;;;;;;5074447;28;20412;-65
2022/04/08 08:53:17;;;;;;;1.93;0.80;;;6.30;99.90;;;;;;5071630;28;20439;-64
2022/04/08 08:55:44;;;;;;;1.30;0.50;;;6.30;99.90;;;;;;5070243;28;20495;-64
2022/04/08 08:58:10;;;;;;;1.83;0.50;;;6.30;99.90;;;;;;5079071;28;20450;-66
2022/04/08 09:00:36;;;;;;;1.10;0.40;;;6.30;99.90;;;;;;5080169;28;21202;-66
2022/04/08 09:03:03;;;;;;;2.10;0.80;;;6.30;99.90;;;;;;5079974;28;20217;-65
2022/04/08 09:05:29;;;;;;;1.67;0.60;;;6.20;99.90;;;;;;5080312;28;20430;-65
2022/04/08 09:08:05;;;;;;;3.57;0.73;;;6.10;99.90;;;;;;5074254;28;20517;-65
2022/04/08 09:10:35;;;;;;;1.60;0.73;;;6.20;99.90;;;;;;5078244;28;20175;-65
2022/04/08 09:13:03;;;;;;;1.30;0.70;;;6.30;99.90;;;;;;5077225;28;20450;-65
2022/04/08 09:15:29;;;;;;;5.80;1.20;;;6.40;99.90;;;;;;5077767;28;20426;-65
2022/04/08 09:18:04;;;;;;;2.43;0.90;;;6.60;99.90;;;;;;5067099;28;20419;-66
2022/04/08 09:20:39;;;;;;;1.50;0.60;;;6.80;99.90;;;;;;5067623;28;20789;-65
2022/04/08 09:23:07;;;;;;;1.50;0.70;;;6.90;99.90;;;;;;5077488;28;20580;-65
2022/04/08 09:25:33;;;;;;;1.40;0.70;;;6.90;99.90;;;;;;5083874;28;20427;-65
2022/04/08 09:28:05;;;;;;;1.60;0.53;;;6.80;99.90;;;;;;5080440;28;20458;-65
2022/04/08 09:30:31;;;;;;;1.77;0.70;;;6.70;99.90;;;;;;5080317;28;20423;-65
2022/04/08 09:32:58;;;;;;;1.97;0.80;;;6.70;99.90;;;;;;5073660;28;20475;-64
2022/04/08 09:35:26;;;;;;;1.30;0.53;;;6.60;99.90;;;;;;5082214;28;20168;-64
2022/04/08 09:38:03;;;;;;;1.30;0.50;;;6.50;99.90;;;;;;5070793;28;20503;-65
2022/04/08 09:40:38;;;;;;;1.30;0.60;;;6.40;99.90;;;;;;5075683;28;20411;-65
2022/04/08 09:43:05;;;;;;;1.40;0.70;;;6.40;99.90;;;;;;5080730;28;20545;-65
2022/04/08 09:45:31;;;;;;;1.30;0.60;;;6.40;99.90;;;;;;5078572;28;20415;-64
2022/04/08 09:48:04;;;;;;;1.20;0.50;;;6.50;99.90;;;;;;5072026;28;20985;-65
2022/04/08 09:50:30;;;;;;;1.23;0.57;;;6.50;99.90;;;;;;5072188;28;20913;-65
2022/04/08 09:52:56;;;;;;;1.20;0.50;;;6.40;99.90;;;;;;5073437;28;20438;-67
2022/04/08 09:55:22;;;;;;;1.30;0.53;;;6.40;99.90;;;;;;5071176;28;20422;-65
2022/04/08 09:57:53;;;;;;;1.70;0.60;;;6.40;99.90;;;;;;5074754;28;20337;-65
2022/04/08 10:00:19;;;;;;;1.20;0.50;;;6.40;99.90;;;;;;5074822;28;20788;-65
2022/04/08 10:02:46;;;;;;;1.57;0.50;;;6.50;99.90;;;;;;5072434;28;20450;-66
2022/04/08 10:05:12;;;;;;;1.20;0.50;;;6.40;99.90;;;;;;5071179;28;20220;-64
2022/04/08 10:07:44;;;;;;;1.30;0.50;;;6.40;99.90;;;;;;5070352;28;20510;-66
2022/04/08 10:10:24;;;;;;;2.10;0.73;;;6.50;99.90;;;;;;5073712;28;20411;-66
2022/04/08 10:13:28;;;;;;;1.10;0.40;;;6.40;99.90;;;;;;5077412;28;21018;-66
2022/04/08 10:16:01;;;;;;;1.30;0.50;;;6.30;99.90;;;;;;5070665;28;20468;-66
2022/04/08 10:18:37;;;;;;;1.17;0.50;;;6.40;99.90;;;;;;5068956;28;20423;-67
2022/04/08 10:21:03;;;;;;;2.13;0.60;;;6.30;99.90;;;;;;5068034;28;21119;-65
2022/04/08 10:23:52;;;;;;;1.60;0.60;;;6.30;99.90;;;;;;5069952;28;20449;-66
2022/04/08 10:26:23;;;;;;;2.33;0.87;;;6.40;99.90;;;;;;5075280;28;20412;-66
2022/04/08 10:28:50;;;;;;;2.70;0.87;;;6.50;99.90;;;;;;5072086;28;20884;-67
2022/04/08 10:31:23;;;;;;;1.57;0.60;;;6.50;99.90;;;;;;5079257;28;20458;-66
2022/04/08 10:33:54;;;;;;;1.30;0.60;;;6.50;99.90;;;;;;5075227;28;20407;-65
2022/04/08 10:36:43;;;;;;;1.20;0.50;;;6.50;99.90;;;;;;5069599;28;20421;-66
2022/04/08 10:39:22;;;;;;;1.30;0.60;;;6.60;99.90;;;;;;5070780;28;20419;-67
2022/04/08 10:41:53;;;;;;;2.50;1.00;;;6.60;99.90;;;;;;5072291;28;20442;-65
2022/04/08 10:44:48;;;;;;;3.73;1.00;;;6.50;99.90;;;;;;5072952;28;20414;-67
2022/04/08 10:47:20;;;;;;;2.73;0.63;;;6.30;99.90;;;;;;5054183;28;20481;-65
2022/04/08 10:49:54;;;;;;;5.33;1.00;;;6.40;99.90;;;;;;5082472;28;20433;-68
2022/04/08 10:52:24;;;;;;;1.93;0.60;;;6.50;99.90;;;;;;5067026;28;20436;-67
2022/04/08 10:54:52;;;;;;;1.60;0.93;;;6.60;99.90;;;;;;5057419;28;20423;-67
2022/04/08 10:57:34;;;;;;;1.30;0.70;;;6.60;99.90;;;;;;5073248;28;20423;-66
2022/04/08 11:00:06;;;;;;;4.53;0.97;;;6.70;99.90;;;;;;5072705;28;20422;-67
2022/04/08 11:02:36;;;;;;;1.93;0.70;;;6.60;99.90;;;;;;5073736;28;20465;-67
2022/04/08 11:05:10;;;;;;;3.17;1.13;;;6.60;99.90;;;;;;5072638;28;20415;-65
2022/04/08 11:07:40;;;;;;;2.13;1.33;;;6.60;99.90;;;;;;5071425;28;20458;-66
2022/04/08 11:10:09;;;;;;;2.10;1.07;;;6.60;99.90;;;;;;5070573;28;20414;-66
2022/04/08 11:12:52;;;;;;;6.90;1.20;;;6.70;99.90;;;;;;5074102;28;20920;-64
2022/04/08 11:15:23;;;;;;;2.43;1.00;;;6.60;99.90;;;;;;5075085;28;20588;-67
2022/04/08 11:17:49;;;;;;;6.17;0.97;;;6.50;99.90;;;;;;5080908;28;20510;-67
2022/04/08 11:20:20;;;;;;;5.23;1.50;;;6.50;99.90;;;;;;5080129;28;20441;-66
2022/04/08 11:22:48;;;;;;;1.77;0.97;;;6.50;99.90;;;;;;5075226;28;20457;-66
2022/04/08 11:25:25;;;;;;;2.43;1.00;;;6.50;99.90;;;;;;5062075;28;20441;-66
2022/04/08 11:28:03;;;;;;;3.10;1.60;;;6.50;99.90;;;;;;5080073;28;20568;-66
2022/04/08 11:30:30;;;;;;;3.20;1.27;;;6.50;99.90;;;;;;5079021;28;20838;-66
2022/04/08 11:32:57;;;;;;;1.60;1.00;;;6.50;99.90;;;;;;5072406;28;20522;-66
2022/04/08 11:35:27;;;;;;;2.27;1.00;;;6.50;99.90;;;;;;5078280;28;20439;-66
2022/04/08 11:37:53;;;;;;;2.40;1.10;;;6.50;99.90;;;;;;5075252;28;20510;-66
2022/04/08 11:40:18;;;;;;;6.40;0.80;;;6.50;99.90;;;;;;5081198;28;20815;-67
2022/04/08 11:42:48;;;;;;;2.60;1.10;;;6.50;99.90;;;;;;5079144;28;20207;-67
2022/04/08 11:45:15;;;;;;;1.80;0.90;;;6.50;99.90;;;;;;5071980;28;20272;-67
2022/04/08 11:47:46;;;;;;;2.47;0.83;;;6.50;99.90;;;;;;5070625;28;20576;-66
2022/04/08 11:50:12;;;;;;;2.00;0.93;;;6.50;99.90;;;;;;5077444;28;20446;-66
2022/04/08 11:52:38;;;;;;;6.63;1.27;;;6.50;99.90;;;;;;5078681;28;20780;-66
2022/04/08 11:55:05;;;;;;;1.33;0.70;;;6.50;99.90;;;;;;5078223;28;20522;-66
2022/04/08 11:57:33;;;;;;;1.60;0.90;;;6.50;99.90;;;;;;5074330;28;21059;-66
2022/04/08 12:00:01;;;;;;;2.10;0.90;;;6.50;99.90;;;;;;5085910;28;20438;-66
2022/04/08 12:02:28;;;;;;;1.73;1.03;;;6.50;99.90;;;;;;5082037;28;20819;-65
2022/04/08 12:04:54;;;;;;;2.03;1.40;;;6.40;99.90;;;;;;5074468;28;20964;-66
2022/04/08 12:07:25;;;;;;;1.63;0.77;;;6.40;99.90;;;;;;5073817;28;20423;-65
2022/04/08 12:09:55;;;;;;;3.07;2.10;;;6.30;99.90;;;;;;5073918;28;20334;-66
2022/04/08 12:12:38;;;;;;;2.43;1.40;;;6.40;99.90;;;;;;5075352;28;20439;-65
2022/04/08 12:15:08;;;;;;;2.80;1.10;;;6.40;99.90;;;;;;5078688;28;20422;-65
2022/04/08 12:17:38;;;;;;;3.90;1.20;;;6.40;99.90;;;;;;5074951;28;20427;-65
2022/04/08 12:20:05;;;;;;;2.10;1.33;;;6.30;99.90;;;;;;5077322;28;21228;-66
2022/04/08 12:22:32;;;;;;;2.93;1.30;;;6.30;99.90;;;;;;5076616;28;20442;-66
2022/04/08 12:24:59;;;;;;;2.60;1.33;;;6.30;99.90;;;;;;5076331;28;20491;-67
2022/04/08 12:27:30;;;;;;;2.27;1.20;;;6.40;99.90;;;;;;5077098;28;20768;-66
2022/04/08 12:30:08;;;;;;;2.90;1.70;;;6.40;99.90;;;;;;5073567;28;20423;-65
2022/04/08 12:32:36;;;;;;;2.93;1.27;;;6.50;99.90;;;;;;5074233;28;20541;-66
2022/04/08 12:35:02;;;;;;;2.97;1.27;;;6.50;99.90;;;;;;5080484;28;20429;-66
2022/04/08 12:37:28;;;;;;;10.50;1.77;;;6.50;99.90;;;;;;5081014;28;20986;-65
2022/04/08 12:39:53;;;;;;;2.87;1.17;;;6.50;99.90;;;;;;5070892;28;20411;-66
2022/04/08 12:42:19;;;;;;;2.60;1.43;;;6.50;99.90;;;;;;5078389;28;20211;-66
2022/04/08 12:44:45;;;;;;;1.90;1.17;;;6.50;99.90;;;;;;5077424;28;20752;-66
2022/04/08 12:47:11;;;;;;;2.97;1.27;;;6.50;99.90;;;;;;5077232;28;20685;-65
2022/04/08 12:49:36;;;;;;;3.20;1.30;;;6.50;99.90;;;;;;5072952;28;20203;-66
2022/04/08 12:52:02;;;;;;;2.43;1.50;;;6.50;99.90;;;;;;5076902;28;20204;-66
2022/04/08 12:54:28;;;;;;;2.40;1.40;;;6.50;99.90;;;;;;5077049;28;20648;-68
2022/04/08 12:56:53;;;;;;;5.77;1.97;;;6.50;99.90;;;;;;5078303;28;20196;-66
2022/04/08 12:59:19;;;;;;;4.20;1.93;;;6.40;99.90;;;;;;5078732;28;20196;-66